Troy Mills, IA (52344)

4:35 AM CST on December 18, 2014 (GMT -0600)
KIACENTR2 | Change Station
CLOSE
Current Station
Personal Weather Station
Location: Central City, IA
Elevation: 930 ft
Nearby Weather Stations

Elev 930 ft 42.20 °N, 91.65 °W | Updated 48 seconds ago

Clear
Clear
14.4 °F
Feels Like 14 °F
N
1.8
Wind Variable Wind from NNE
Gusts 2.5 mph

Today
High -- | Low -- °F
--% Chance of Precip.
Yesterday
High -- | Low -- °F
Precip. -- in
7:30 AM 4:36 PM
Waning Crescent, 15% visible
Pressure 30.28 in
Visibility 7.0 miles
Clouds Clear
Windchill 14 °F
Dew Point 5 °F
Humidity 66%
Rainfall -999.00 in
Snow Depth Not available.
UV 0.0 out of 12
Pollen .10 out of 12
Air Quality Not available.
Flu Activity Not available.
METAR KVTI 181015Z AUTO 34003KT 7SM CLR M09/M11 A3028 RMK AO2 T10931106

More Conditions Fewer Conditions

Pressure 30.28 in
Visibility 7.0 miles
Clouds Clear
Windchill 14 °F
Dew Point 5 °F
Humidity 66%
Rainfall -999.00 in
Snow Depth Not available.
UV 0.0 out of 12
Pollen .10 out of 12
Air Quality Not available.
Flu Activity Not available.
METAR KVTI 181015Z AUTO 34003KT 7SM CLR M09/M11 A3028 RMK AO2 T10931106

More Conditions Fewer Conditions

10-Day Weather Forecast

Almanac

Astronomy

Dec. 18, 2014 Rise Set
Actual Time
Civil Twilight
Nautical Twilight
Astronomical Twilight
Moon
Length of Visible Light
Length of Day
Tomorrow will be .
, % of the Moon is Illuminated

Today's Extremes

State Highs State Lows

Community

WunderPhotos

Upload Photos

1,778,907 photos uploaded!

WunderBlogs® & News

Nearby

Air Quality

  Air Quality AQ Index Pollutant
Not available.

Snow Depth

Station Depth Elevation

Earthquake Activity

City Distance Mag. Time & Date
Minimum magnitude displayed is 2.5.

Coastal Water Temperatures

Place Temperature

Nearby Weather Stations